Jewett, Texas
Current Conditions -  °F | °C
As of 6:15 PM on Wednesday 28 Jan 2015 (Local Time) from KLXY Reporting Station
Clear Clear  
Wind Chill: 70°   Ceiling: Unl
Heat Index: 70°   Visibility: 10mi
Dew Point: 42°   Wind: 8mph
Humidity: 37%   Direction: 160°SSE
Pressure: 30.05"   Gusts: NA
Location:  31.36°N, 96.14°W
Report Text: KLXY 290015Z AUTO 16007KT 10SM CLR 21/06 A3005 RMK AO2 T02100056
Loading
Personal Weather Stations






























Interactive Weather Map New forecast layout! Learn more

10-Day Weather Forecast

Advertisements
Track Severe Weather on mobile